createdAt,value
2019-05-21T00:01:25.395Z,94185.77
2019-05-21T00:06:28.139Z,94177.80
2019-05-21T00:09:03.233Z,94176.30
2019-05-21T00:11:33.488Z,94182.14
2019-05-21T00:14:02.385Z,94183.47
2019-05-21T00:16:30.321Z,94187.37
2019-05-21T00:19:02.010Z,94183.34
2019-05-21T00:21:29.921Z,94182.38
2019-05-21T00:24:01.562Z,94181.97
2019-05-21T00:26:29.446Z,94184.05
2019-05-21T00:29:09.221Z,94184.83
2019-05-21T00:31:48.752Z,94188.96
2019-05-21T00:34:43.270Z,94190.97
2019-05-21T00:37:10.183Z,94187.35
2019-05-21T00:39:49.924Z,94195.02
2019-05-21T00:42:18.446Z,94195.48
2019-05-21T00:44:50.824Z,94201.74
2019-05-21T00:47:18.734Z,94199.58
2019-05-21T00:49:46.711Z,94205.99
2019-05-21T00:52:14.683Z,94214.52
2019-05-21T00:54:43.529Z,94204.84
2019-05-21T00:57:11.907Z,94210.89
2019-05-21T00:59:40.409Z,94201.02
2019-05-21T01:02:08.312Z,94208.64
2019-05-21T01:04:36.240Z,94204.61
2019-05-21T01:07:05.152Z,94206.06
2019-05-21T01:09:40.445Z,94207.16
2019-05-21T01:12:08.396Z,94212.46
2019-05-21T01:14:36.321Z,94216.61
2019-05-21T01:17:05.128Z,94211.14
2019-05-21T01:19:43.787Z,94214.81
2019-05-21T01:22:11.746Z,94221.17
2019-05-21T01:24:39.703Z,94213.24
2019-05-21T01:27:07.622Z,94220.59
2019-05-21T01:29:42.440Z,94224.86
2019-05-21T01:32:10.360Z,94217.53
2019-05-21T01:34:38.305Z,94221.27
2019-05-21T01:37:06.219Z,94226.60
2019-05-21T01:39:48.112Z,94229.02
2019-05-21T01:42:16.016Z,94236.44
2019-05-21T01:44:47.457Z,94235.26
2019-05-21T01:47:15.392Z,94229.90
2019-05-21T01:49:43.308Z,94228.72
2019-05-21T01:52:11.220Z,94235.91
2019-05-21T01:54:41.068Z,94246.23
2019-05-21T01:57:09.018Z,94246.60
2019-05-21T01:59:38.882Z,94234.19
2019-05-21T02:02:06.798Z,94235.92
2019-05-21T02:04:35.724Z,94248.75
2019-05-21T02:07:04.514Z,94244.58
2019-05-21T02:09:32.420Z,94255.58
2019-05-21T02:12:00.333Z,94255.86
2019-05-21T02:14:29.283Z,94245.11
2019-05-21T02:16:59.180Z,94249.52
2019-05-21T02:19:27.101Z,94262.00
2019-05-21T02:21:58.870Z,94260.30
2019-05-21T02:24:26.774Z,94261.81
2019-05-21T02:27:00.539Z,94263.14
2019-05-21T02:29:28.432Z,94273.17
2019-05-21T02:31:57.547Z,94264.05
2019-05-21T02:34:25.457Z,94271.95
2019-05-21T02:36:59.770Z,94275.07
2019-05-21T02:39:28.662Z,94278.05
2019-05-21T02:42:04.448Z,94287.52
2019-05-21T02:44:35.487Z,94288.33
2019-05-21T02:47:05.369Z,94289.89
2019-05-21T02:49:33.298Z,94292.95
2019-05-21T02:52:03.153Z,94287.88
2019-05-21T02:54:41.108Z,94298.55
2019-05-21T02:57:05.631Z,94300.41
2019-05-21T02:59:33.530Z,94296.75
2019-05-21T03:02:13.187Z,94287.03
2019-05-21T03:04:41.072Z,94308.41
2019-05-21T03:07:16.585Z,94308.57
2019-05-21T03:09:44.496Z,94297.86
2019-05-21T03:12:12.444Z,94308.45
2019-05-21T03:14:40.348Z,94310.05
2019-05-21T03:17:09.213Z,94308.53
2019-05-21T03:19:37.128Z,94299.53
2019-05-21T03:22:10.628Z,94315.45
2019-05-21T03:24:38.578Z,94329.56
2019-05-21T03:27:10.042Z,94316.72
2019-05-21T03:29:37.943Z,94321.86
2019-05-21T03:32:05.971Z,94321.49
2019-05-21T03:34:38.326Z,94329.34
2019-05-21T03:37:06.282Z,94328.91
2019-05-21T03:39:39.803Z,94332.16
2019-05-21T03:42:08.745Z,94335.48
2019-05-21T03:44:38.610Z,94339.06
2019-05-21T03:47:09.664Z,94337.55
2019-05-21T03:49:37.566Z,94337.56
2019-05-21T03:52:05.529Z,94336.29
2019-05-21T03:54:35.510Z,94337.73
2019-05-21T03:57:09.788Z,94338.72
2019-05-21T03:59:37.707Z,94345.70
2019-05-21T04:02:05.685Z,94343.14
2019-05-21T04:04:33.609Z,94345.06
2019-05-21T04:07:01.553Z,94368.13
2019-05-21T04:09:30.425Z,94361.44
2019-05-21T04:12:08.559Z,94359.40
2019-05-21T04:14:43.054Z,94357.61
2019-05-21T04:17:16.467Z,94362.03
2019-05-21T04:19:48.764Z,94357.42
2019-05-21T04:22:16.644Z,94370.45
2019-05-21T04:24:45.265Z,94363.98
2019-05-21T04:27:13.172Z,94364.34
2019-05-21T04:29:42.068Z,94358.95
2019-05-21T04:32:10.071Z,94367.45
2019-05-21T04:34:37.972Z,94369.56
2019-05-21T04:37:11.244Z,94379.39
2019-05-21T04:39:35.726Z,94382.06
2019-05-21T04:42:03.641Z,94392.78
2019-05-21T04:44:31.583Z,94380.53
2019-05-21T04:46:59.512Z,94391.20
2019-05-21T04:49:29.311Z,94381.62
2019-05-21T04:52:01.190Z,94389.30
2019-05-21T04:54:31.109Z,94386.41
2019-05-21T04:56:59.132Z,94386.20
2019-05-21T04:59:27.107Z,94394.64
2019-05-21T05:01:55.047Z,94401.91
2019-05-21T05:04:25.007Z,94394.62
2019-05-21T05:06:52.912Z,94408.02
2019-05-21T05:09:22.748Z,94404.11
2019-05-21T05:11:52.655Z,94409.22
2019-05-21T05:14:22.576Z,94410.12
2019-05-21T05:16:50.498Z,94402.17
2019-05-21T05:19:18.412Z,94413.44
2019-05-21T05:21:46.337Z,94406.36
2019-05-21T05:24:14.267Z,94407.62
2019-05-21T05:26:42.162Z,94416.22
2019-05-21T05:29:24.512Z,94418.94
2019-05-21T05:31:52.429Z,94421.24
2019-05-21T05:34:20.366Z,94416.80
2019-05-21T05:36:48.275Z,94425.95
2019-05-21T05:39:16.203Z,94429.97
2019-05-21T05:41:44.109Z,94426.88
2019-05-21T05:44:20.052Z,94416.52
2019-05-21T05:50:03.891Z,94448.08
2019-05-21T05:52:31.835Z,94446.45
2019-05-21T05:55:04.384Z,94434.52
2019-05-21T05:57:34.206Z,94441.30
2019-05-21T06:03:01.568Z,94458.89
2019-05-21T06:05:31.361Z,94466.05
2019-05-21T06:08:11.821Z,94461.89
2019-05-21T06:10:40.642Z,94454.73
2019-05-21T06:13:29.224Z,94462.86
2019-05-21T06:15:57.203Z,94474.87
2019-05-21T06:18:31.436Z,94470.98
2019-05-21T06:21:09.146Z,94472.59
2019-05-21T06:23:37.067Z,94472.63
2019-05-21T06:26:29.524Z,94468.41
2019-05-21T06:32:00.076Z,94490.26
2019-05-21T06:34:32.760Z,94494.80
2019-05-21T06:37:02.587Z,94488.27
2019-05-21T06:39:49.215Z,94493.69
2019-05-21T06:42:24.721Z,94504.70
2019-05-21T06:44:52.648Z,94496.30
2019-05-21T06:47:20.576Z,94499.45
2019-05-21T06:49:50.401Z,94499.73
2019-05-21T06:52:22.674Z,94507.72
2019-05-21T06:54:50.630Z,94503.72
2019-05-21T06:57:18.637Z,94496.38
2019-05-21T06:59:51.258Z,94499.43
2019-05-21T07:02:36.330Z,94509.19
2019-05-21T07:05:04.275Z,94511.91
2019-05-21T07:07:36.224Z,94527.77
2019-05-21T07:10:04.859Z,94530.79
2019-05-21T07:12:32.800Z,94521.31
2019-05-21T07:15:13.474Z,94525.95
2019-05-21T07:17:41.442Z,94522.06
2019-05-21T07:23:03.223Z,94526.84
2019-05-21T07:25:31.021Z,94527.42
2019-05-21T07:28:03.202Z,94532.14
2019-05-21T07:30:31.127Z,94531.13
2019-05-21T07:33:05.812Z,94553.55
2019-05-21T07:35:33.301Z,94542.55
2019-05-21T07:38:01.240Z,94540.78
2019-05-21T07:40:29.162Z,94531.25
2019-05-21T07:43:14.167Z,94547.36
2019-05-21T07:45:47.299Z,94563.55
2019-05-21T07:48:21.102Z,94545.92
2019-05-21T07:50:48.975Z,94546.92
2019-05-21T07:53:18.892Z,94545.43
2019-05-21T07:55:47.923Z,94556.97
2019-05-21T07:58:21.698Z,94548.30
2019-05-21T08:00:49.634Z,94559.28
2019-05-21T08:03:20.891Z,94558.30
2019-05-21T08:05:49.247Z,94560.10
2019-05-21T08:08:23.547Z,94560.77
2019-05-21T08:10:52.422Z,94563.69
2019-05-21T08:13:43.921Z,94571.30
2019-05-21T08:16:19.259Z,94564.89
2019-05-21T08:18:52.832Z,94584.83
2019-05-21T08:21:22.776Z,94575.11
2019-05-21T08:23:52.268Z,94584.67
2019-05-21T08:26:20.224Z,94587.03
2019-05-21T08:28:53.813Z,94591.02
2019-05-21T08:34:21.545Z,94588.13
2019-05-21T08:37:04.612Z,94596.86
2019-05-21T08:39:38.753Z,94590.62
2019-05-21T08:42:06.717Z,94587.27
2019-05-21T08:44:37.767Z,94586.05
2019-05-21T08:47:05.711Z,94585.48
2019-05-21T08:49:39.780Z,94593.18
2019-05-21T08:52:07.742Z,94594.77
2019-05-21T08:54:46.968Z,94600.81
2019-05-21T08:57:15.801Z,94592.42
2019-05-21T09:00:07.736Z,94586.86
2019-05-21T09:05:48.559Z,94591.88
2019-05-21T09:08:16.543Z,94595.38
2019-05-21T09:11:02.052Z,94596.66
2019-05-21T09:16:31.056Z,94601.44
2019-05-21T09:19:04.835Z,94593.62
2019-05-21T09:21:36.495Z,94595.48
2019-05-21T09:24:05.382Z,94598.91
2019-05-21T09:26:56.784Z,94594.88
2019-05-21T09:29:30.509Z,94598.42
2019-05-21T09:32:05.912Z,94603.00
2019-05-21T09:34:48.279Z,94591.78
2019-05-21T09:37:18.453Z,94603.59
2019-05-21T09:39:35.219Z,94611.59
2019-05-21T09:42:05.082Z,94622.33
2019-05-21T09:44:34.923Z,94604.94
2019-05-21T09:47:04.797Z,94600.20
2019-05-21T09:52:32.542Z,94602.65
2019-05-21T09:55:06.280Z,94607.20
2019-05-21T09:57:44.300Z,94623.55
2019-05-21T10:00:22.134Z,94615.41
2019-05-21T10:02:57.947Z,94617.64
2019-05-21T10:05:37.493Z,94623.08
2019-05-21T10:08:21.883Z,94623.92
2019-05-21T10:10:53.174Z,94620.30
2019-05-21T10:13:26.103Z,94641.65
2019-05-21T10:16:00.871Z,94623.13
2019-05-21T10:18:31.214Z,94632.78
2019-05-21T10:21:00.157Z,94630.84
2019-05-21T10:23:30.029Z,94643.53
2019-05-21T10:25:57.994Z,94639.42
2019-05-21T10:28:25.894Z,94638.06
2019-05-21T10:30:58.441Z,94643.44
2019-05-21T10:33:26.422Z,94650.80
2019-05-21T10:36:11.358Z,94646.55
2019-05-21T10:38:44.679Z,94658.09
2019-05-21T10:41:17.447Z,94650.72
2019-05-21T10:43:50.918Z,94653.61
2019-05-21T10:46:23.631Z,94650.74
2019-05-21T10:48:51.610Z,94661.25
2019-05-21T10:51:25.739Z,94662.70
2019-05-21T10:53:54.623Z,94660.90
2019-05-21T10:56:28.184Z,94654.62
2019-05-21T10:58:56.089Z,94661.25
2019-05-21T11:01:49.784Z,94653.43
2019-05-21T11:04:20.996Z,94653.72
2019-05-21T11:06:49.012Z,94671.31
2019-05-21T11:09:18.965Z,94661.11
2019-05-21T11:11:48.937Z,94654.34
2019-05-21T11:14:18.692Z,94663.55
2019-05-21T11:16:51.945Z,94662.38
2019-05-21T11:19:28.241Z,94667.61
2019-05-21T11:22:00.045Z,94669.98
2019-05-21T11:24:31.741Z,94670.28
2019-05-21T11:27:00.054Z,94673.61
2019-05-21T11:29:28.988Z,94670.33
2019-05-21T11:31:57.953Z,94669.67
2019-05-21T11:34:38.713Z,94672.36
2019-05-21T11:37:07.612Z,94672.74
2019-05-21T11:39:56.529Z,94669.80
2019-05-21T11:42:28.154Z,94665.22
2019-05-21T11:44:56.332Z,94682.49
2019-05-21T11:47:27.390Z,94682.39
2019-05-21T11:49:58.871Z,94675.53
2019-05-21T11:52:40.738Z,94676.88
2019-05-21T12:00:09.945Z,94673.81
2019-05-21T12:02:39.325Z,94688.53
2019-05-21T12:05:07.733Z,94683.12
2019-05-21T12:07:38.086Z,94685.91
2019-05-21T12:10:06.457Z,94695.44
2019-05-21T12:12:39.540Z,94694.83
2019-05-21T12:15:07.939Z,94696.73
2019-05-21T12:17:42.465Z,94693.03
2019-05-21T12:20:10.839Z,94685.02
2019-05-21T12:22:42.999Z,94691.83
2019-05-21T12:25:11.373Z,94685.03
2019-05-21T12:27:39.764Z,94696.10
2019-05-21T12:30:08.141Z,94693.02
2019-05-21T12:32:39.616Z,94699.08
2019-05-21T12:35:07.984Z,94694.88
2019-05-21T12:37:36.402Z,94706.66
2019-05-21T12:40:05.568Z,94714.36
2019-05-21T12:42:34.820Z,94707.05
2019-05-21T12:45:03.186Z,94735.92
2019-05-21T12:47:31.544Z,94727.94
2019-05-21T12:49:59.921Z,94727.03
2019-05-21T12:52:28.283Z,94721.91
2019-05-21T12:57:41.715Z,94734.49
2019-05-21T13:00:10.996Z,94729.38
2019-05-21T13:02:58.157Z,94720.50
2019-05-21T13:05:33.209Z,94726.05
2019-05-21T13:08:03.531Z,94729.35
2019-05-21T13:13:09.147Z,94738.00
2019-05-21T13:15:57.963Z,94738.30
2019-05-21T13:18:29.824Z,94745.83
2019-05-21T13:20:59.188Z,94742.27
2019-05-21T13:23:27.546Z,94747.64
2019-05-21T13:25:55.913Z,94747.43
2019-05-21T13:28:50.714Z,94755.93
2019-05-21T13:31:19.135Z,94760.42
2019-05-21T13:33:47.545Z,94771.07
2019-05-21T13:36:15.912Z,94762.09
2019-05-21T13:38:52.661Z,94772.50
2019-05-21T13:41:27.694Z,94769.52
2019-05-21T13:43:57.858Z,94772.81
2019-05-21T13:46:40.162Z,94768.52
2019-05-21T13:49:08.564Z,94765.19
2019-05-21T13:51:41.608Z,94765.95
2019-05-21T13:54:09.988Z,94773.65
2019-05-21T13:56:53.594Z,94771.70
2019-05-21T13:59:22.015Z,94784.58
2019-05-21T14:02:00.586Z,94782.50
2019-05-21T14:07:07.228Z,94784.23
2019-05-21T14:12:12.751Z,94779.66
2019-05-21T14:17:40.659Z,94787.47
2019-05-21T14:20:09.095Z,94790.19
2019-05-21T14:22:41.773Z,94784.70
2019-05-21T14:25:10.193Z,94795.77
2019-05-21T14:30:38.451Z,94808.05
2019-05-21T14:33:07.806Z,94801.59
2019-05-21T14:35:53.610Z,94805.88
2019-05-21T14:38:28.147Z,94811.81
2019-05-21T14:41:04.716Z,94808.16
2019-05-21T14:46:10.295Z,94817.89
2019-05-21T14:48:38.687Z,94823.71
2019-05-21T14:51:32.952Z,94817.16
2019-05-21T14:56:48.301Z,94823.42
2019-05-21T14:59:36.350Z,94821.23
2019-05-21T15:02:19.650Z,94824.16
2019-05-21T15:04:48.217Z,94828.93
2019-05-21T15:07:30.144Z,94832.77
2019-05-21T15:10:10.922Z,94842.58
2019-05-21T15:12:39.986Z,94843.16
2019-05-21T15:15:09.444Z,94842.50
2019-05-21T15:17:37.787Z,94832.72
2019-05-21T15:20:14.750Z,94843.70
2019-05-21T15:22:50.691Z,94840.88
2019-05-21T15:25:38.041Z,94855.27
2019-05-21T15:28:29.661Z,94839.30
2019-05-21T15:31:10.806Z,94847.13
2019-05-21T15:33:40.190Z,94844.65
2019-05-21T15:36:14.353Z,94844.56
2019-05-21T15:38:49.967Z,94858.31
2019-05-21T15:41:12.704Z,94844.86
2019-05-21T15:43:40.449Z,94859.71
2019-05-21T15:51:58.896Z,94868.28
2019-05-21T15:54:38.209Z,94861.30
2019-05-21T15:57:10.435Z,94868.14
2019-05-21T15:59:35.867Z,94874.35
2019-05-21T16:02:04.602Z,94876.39
2019-05-21T16:04:35.001Z,94873.13
2019-05-21T16:07:22.415Z,94883.55
2019-05-21T16:10:00.443Z,94883.52
2019-05-21T16:12:37.241Z,94888.64
2019-05-21T16:15:06.354Z,94884.51
2019-05-21T16:17:34.722Z,94891.88
2019-05-21T16:20:04.049Z,94897.66
2019-05-21T16:25:19.262Z,94909.30
2019-05-21T16:27:47.664Z,94902.17
2019-05-21T16:30:21.806Z,94920.48
2019-05-21T16:32:50.182Z,94916.86
2019-05-21T16:37:57.691Z,94920.59
2019-05-21T16:40:26.164Z,94919.57
2019-05-21T16:43:02.138Z,94923.13
2019-05-21T16:45:30.545Z,94926.52
2019-05-21T16:50:36.070Z,94937.44
2019-05-21T16:55:43.296Z,94940.23
2019-05-21T17:01:00.876Z,94951.37
2019-05-21T17:03:37.343Z,94956.22
2019-05-21T17:06:06.664Z,94944.62
2019-05-21T17:08:37.145Z,94952.22
2019-05-21T17:11:25.004Z,94953.08
2019-05-21T17:16:30.654Z,94951.11
2019-05-21T17:19:05.869Z,94952.11
2019-05-21T17:21:34.289Z,94961.69
2019-05-21T17:24:02.697Z,94961.59
2019-05-21T17:26:31.957Z,94967.03
2019-05-21T17:29:01.544Z,94962.23
2019-05-21T17:31:29.933Z,94970.75
2019-05-21T17:36:34.619Z,94980.55
2019-05-21T17:39:03.026Z,94973.63
2019-05-21T17:41:31.385Z,94987.13
2019-05-21T17:43:59.803Z,94976.45
2019-05-21T17:46:31.705Z,94979.00
2019-05-21T17:49:02.076Z,94978.33
2019-05-21T17:51:32.428Z,94974.59
2019-05-21T17:54:01.998Z,94984.05
2019-05-21T17:56:36.352Z,94990.80
2019-05-21T17:59:09.328Z,94995.20
2019-05-21T18:01:41.212Z,94993.25
2019-05-21T18:04:14.981Z,94995.20
2019-05-21T18:07:04.910Z,95001.62
2019-05-21T18:12:12.453Z,95000.84
2019-05-21T18:14:51.214Z,95003.08
2019-05-21T18:17:19.560Z,95003.36
2019-05-21T18:19:57.557Z,95011.42
2019-05-21T18:22:25.944Z,95010.44
2019-05-21T18:24:56.203Z,95015.09
2019-05-21T18:27:24.549Z,95015.84
2019-05-21T18:29:58.845Z,95020.99
2019-05-21T18:35:14.447Z,95028.12
2019-05-21T18:37:42.950Z,95026.73
2019-05-21T18:40:13.217Z,95034.81
2019-05-21T18:42:41.591Z,95037.87
2019-05-21T18:45:10.014Z,95039.59
2019-05-21T18:50:35.044Z,95049.97
2019-05-21T18:52:57.901Z,95049.74
2019-05-21T18:55:34.564Z,95055.13
2019-05-21T18:58:08.869Z,95052.92
2019-05-21T19:00:42.312Z,95057.80
2019-05-21T19:03:10.689Z,95063.70
2019-05-21T19:05:53.479Z,95074.55
2019-05-21T19:11:03.806Z,95075.55
2019-05-21T19:13:33.202Z,95080.02
2019-05-21T19:16:02.552Z,95086.52
2019-05-21T19:18:30.910Z,95088.57
2019-05-21T19:21:05.213Z,95088.59
2019-05-21T19:23:33.600Z,95087.80
2019-05-21T19:31:12.378Z,95099.92
2019-05-21T19:33:46.168Z,95099.52
2019-05-21T19:36:15.561Z,95110.99
2019-05-21T19:39:00.360Z,95107.16
2019-05-21T19:41:54.360Z,95110.55
2019-05-21T19:44:22.732Z,95120.38
2019-05-21T19:46:58.124Z,95123.59
2019-05-21T19:49:36.668Z,95123.82
2019-05-21T19:54:41.343Z,95125.75
2019-05-21T19:57:19.867Z,95128.84
2019-05-21T19:59:48.241Z,95131.56
2019-05-21T20:04:50.977Z,95138.52
2019-05-21T20:07:35.962Z,95144.08
2019-05-21T20:10:29.942Z,95149.75
2019-05-21T20:12:58.297Z,95143.19
2019-05-21T20:15:26.703Z,95151.63
2019-05-21T20:18:07.459Z,95150.37
2019-05-21T20:20:29.474Z,95157.11
2019-05-21T20:23:09.897Z,95153.56
2019-05-21T20:25:38.268Z,95158.58
2019-05-21T20:28:10.750Z,95156.73
2019-05-21T20:30:36.965Z,95156.44
2019-05-21T20:33:31.099Z,95160.11
2019-05-21T20:36:05.512Z,95160.02
2019-05-21T20:38:33.913Z,95166.05
2019-05-21T20:43:38.552Z,95165.84
2019-05-21T20:46:18.084Z,95169.11
2019-05-21T20:48:46.432Z,95168.80
2019-05-21T20:51:15.132Z,95174.83
2019-05-21T20:53:43.504Z,95167.09
2019-05-21T20:56:16.753Z,95173.49
2019-05-21T20:58:45.164Z,95168.89
2019-05-21T21:01:19.412Z,95170.50
2019-05-21T21:03:47.796Z,95172.55
2019-05-21T21:06:33.938Z,95169.00
2019-05-21T21:08:45.596Z,95164.95
2019-05-21T21:11:31.850Z,95176.28
2019-05-21T21:14:26.838Z,95170.16
2019-05-21T21:16:56.127Z,95177.12
2019-05-21T21:19:26.374Z,95183.46
2019-05-21T21:24:37.008Z,95180.53
2019-05-21T21:27:28.673Z,95186.19
2019-05-21T21:32:33.364Z,95187.78
2019-05-21T21:35:02.812Z,95189.88
2019-05-21T21:40:20.884Z,95186.54
2019-05-21T21:42:49.239Z,95189.59
2019-05-21T21:45:18.932Z,95191.39
2019-05-21T21:47:47.303Z,95193.59
2019-05-21T21:50:15.671Z,95195.66
2019-05-21T21:52:44.067Z,95201.70
2019-05-21T21:55:12.569Z,95196.94
2019-05-21T21:57:40.945Z,95201.30
2019-05-21T22:03:22.925Z,95198.19
2019-05-21T22:05:51.356Z,95198.63
2019-05-21T22:08:31.428Z,95199.55
2019-05-21T22:11:31.033Z,95199.42
2019-05-21T22:16:51.755Z,95206.04
2019-05-21T22:19:19.945Z,95208.78
2019-05-21T22:21:48.296Z,95203.48
2019-05-21T22:24:21.873Z,95203.90
2019-05-21T22:26:52.369Z,95207.64
2019-05-21T22:29:51.272Z,95210.60
2019-05-21T22:34:53.903Z,95213.42
2019-05-21T22:37:25.673Z,95216.52
2019-05-21T22:39:54.039Z,95217.53
2019-05-21T22:42:23.336Z,95215.52
2019-05-21T22:45:06.873Z,95218.75
2019-05-21T22:47:35.953Z,95222.19
2019-05-21T22:50:16.211Z,95223.39
2019-05-21T22:52:44.612Z,95219.97
2019-05-21T22:55:23.037Z,95219.56
2019-05-21T22:57:51.419Z,95222.59
2019-05-21T23:00:31.517Z,95220.38
2019-05-21T23:02:59.989Z,95222.95
2019-05-21T23:05:34.246Z,95225.95
2019-05-21T23:08:08.965Z,95222.55
2019-05-21T23:10:37.332Z,95226.84
2019-05-21T23:13:05.702Z,95218.94
2019-05-21T23:15:35.095Z,95222.80
2019-05-21T23:18:03.449Z,95217.13
2019-05-21T23:20:31.905Z,95224.62
2019-05-21T23:23:00.247Z,95227.34
2019-05-21T23:25:28.670Z,95227.20
2019-05-21T23:30:33.294Z,95227.13
2019-05-21T23:33:01.663Z,95224.17
2019-05-21T23:35:30.928Z,95224.37
2019-05-21T23:38:03.101Z,95223.16
2019-05-21T23:40:44.473Z,95222.16
2019-05-21T23:43:12.841Z,95223.14
2019-05-21T23:48:18.460Z,95222.06
2019-05-21T23:50:54.038Z,95220.91
2019-05-21T23:53:22.415Z,95229.33
2019-05-21T23:56:04.217Z,95228.05
2019-05-21T23:58:38.344Z,95231.89
